createdAt,value
2022-10-02T00:02:45.960Z,11.10
2022-10-02T00:05:18.569Z,11.20
2022-10-02T00:08:32.015Z,11.20
2022-10-02T00:11:19.682Z,11.20
2022-10-02T00:13:53.692Z,11.30
2022-10-02T00:16:33.573Z,11.20
2022-10-02T00:19:01.075Z,11.20
2022-10-02T00:21:33.773Z,11.30
2022-10-02T00:24:03.129Z,11.30
2022-10-02T00:26:38.874Z,11.30
2022-10-02T00:29:24.433Z,11.30
2022-10-02T00:31:56.858Z,11.20
2022-10-02T00:34:30.634Z,11.20
2022-10-02T00:37:22.806Z,11.10
2022-10-02T00:40:04.398Z,11.10
2022-10-02T00:42:52.313Z,11.10
2022-10-02T00:45:39.536Z,11.10
2022-10-02T00:48:34.177Z,11.00
2022-10-02T00:51:25.882Z,11.10
2022-10-02T00:54:08.828Z,11.00
2022-10-02T00:56:45.937Z,11.00
2022-10-02T00:59:33.137Z,11.00
2022-10-02T01:02:34.682Z,11.00
2022-10-02T01:05:04.984Z,11.00
2022-10-02T01:07:32.141Z,10.90
2022-10-02T01:09:59.228Z,10.90
2022-10-02T01:12:25.861Z,11.00
2022-10-02T01:14:52.408Z,11.00
2022-10-02T01:17:26.832Z,11.10
2022-10-02T01:19:54.441Z,11.10
2022-10-02T01:22:28.172Z,11.10
2022-10-02T01:25:00.720Z,11.20
2022-10-02T01:27:27.506Z,11.20
2022-10-02T01:30:01.685Z,11.20
2022-10-02T01:32:29.261Z,11.20
2022-10-02T01:34:57.703Z,11.30
2022-10-02T01:37:29.310Z,11.30
2022-10-02T01:40:03.067Z,11.40
2022-10-02T01:42:30.104Z,11.40
2022-10-02T01:44:56.709Z,11.50
2022-10-02T01:47:55.997Z,11.50
2022-10-02T01:50:52.617Z,11.50
2022-10-02T01:53:36.308Z,11.60
2022-10-02T01:56:22.285Z,11.50
2022-10-02T01:59:05.030Z,11.40
2022-10-02T02:01:55.966Z,11.40
2022-10-02T02:04:26.841Z,11.30
2022-10-02T02:07:13.468Z,11.30
2022-10-02T02:09:45.570Z,11.20
2022-10-02T02:12:21.838Z,11.10
2022-10-02T02:14:53.540Z,11.10
2022-10-02T02:17:40.285Z,11.00
2022-10-02T02:20:13.578Z,10.90
2022-10-02T02:22:45.608Z,10.90
2022-10-02T02:25:24.192Z,10.80
2022-10-02T02:28:01.054Z,10.80
2022-10-02T02:30:31.520Z,10.70
2022-10-02T02:33:05.721Z,10.70
2022-10-02T02:35:41.514Z,10.60
2022-10-02T02:38:28.733Z,10.60
2022-10-02T02:40:59.496Z,10.50
2022-10-02T02:43:41.293Z,10.50
2022-10-02T02:46:14.101Z,10.50
2022-10-02T02:48:47.101Z,10.50
2022-10-02T02:51:22.953Z,10.40
2022-10-02T02:53:51.533Z,10.40
2022-10-02T02:56:20.906Z,10.40
2022-10-02T02:58:54.765Z,10.40
2022-10-02T03:01:21.598Z,10.40
2022-10-02T03:03:48.358Z,10.50
2022-10-02T03:06:20.465Z,10.50
2022-10-02T03:08:50.222Z,10.50
2022-10-02T03:11:25.948Z,10.50
2022-10-02T03:13:58.833Z,10.60
2022-10-02T03:16:40.711Z,10.60
2022-10-02T03:19:16.560Z,10.50
2022-10-02T03:22:12.798Z,10.50
2022-10-02T03:24:48.244Z,10.50
2022-10-02T03:27:47.627Z,10.50
2022-10-02T03:30:20.420Z,10.50
2022-10-02T03:32:48.504Z,10.50
2022-10-02T03:35:15.461Z,10.50
2022-10-02T03:37:49.374Z,10.50
2022-10-02T03:40:16.057Z,10.50
2022-10-02T03:42:42.642Z,10.40
2022-10-02T03:45:09.640Z,10.40
2022-10-02T03:47:36.213Z,10.40
2022-10-02T03:50:02.807Z,10.40
2022-10-02T03:52:32.360Z,10.30
2022-10-02T03:55:05.359Z,10.40
2022-10-02T03:57:34.193Z,10.40
2022-10-02T04:00:12.996Z,10.40
2022-10-02T04:02:44.849Z,10.40
2022-10-02T04:05:26.577Z,10.40
2022-10-02T04:07:59.725Z,10.30
2022-10-02T04:10:38.330Z,10.30
2022-10-02T04:13:14.364Z,10.30
2022-10-02T04:16:02.029Z,10.30
2022-10-02T04:18:54.265Z,10.40
2022-10-02T04:21:27.257Z,10.40
2022-10-02T04:24:02.442Z,10.40
2022-10-02T04:26:34.716Z,10.40
2022-10-02T04:29:13.412Z,10.40
2022-10-02T04:31:40.123Z,10.40
2022-10-02T04:34:12.237Z,10.50
2022-10-02T04:36:53.379Z,10.50
2022-10-02T04:39:31.862Z,10.60
2022-10-02T04:42:07.256Z,10.70
2022-10-02T04:44:58.765Z,10.70
2022-10-02T04:47:37.456Z,10.70
2022-10-02T04:50:35.855Z,10.70
2022-10-02T04:53:12.049Z,10.80
2022-10-02T04:56:07.665Z,10.80
2022-10-02T04:58:49.501Z,11.00
2022-10-02T05:01:39.893Z,11.00
2022-10-02T05:04:28.377Z,11.00
2022-10-02T05:07:35.365Z,11.10
2022-10-02T05:10:23.090Z,11.00
2022-10-02T05:13:06.287Z,11.10
2022-10-02T05:15:47.567Z,11.10
2022-10-02T05:18:20.034Z,11.00
2022-10-02T05:21:11.996Z,11.00
2022-10-02T05:24:01.265Z,10.90
2022-10-02T05:26:34.003Z,10.90
2022-10-02T05:29:11.473Z,10.80
2022-10-02T05:31:53.034Z,10.80
2022-10-02T05:34:57.025Z,10.90
2022-10-02T05:37:39.712Z,10.90
2022-10-02T05:40:28.357Z,10.90
2022-10-02T05:43:16.960Z,10.90
2022-10-02T05:46:09.945Z,10.90
2022-10-02T05:48:52.732Z,10.90
2022-10-02T05:51:31.533Z,10.80
2022-10-02T05:54:04.778Z,10.80
2022-10-02T05:56:47.516Z,10.70
2022-10-02T05:59:32.826Z,10.70
2022-10-02T06:02:04.679Z,10.70
2022-10-02T06:04:41.629Z,10.70
2022-10-02T06:07:11.950Z,10.70
2022-10-02T06:10:02.988Z,10.70
2022-10-02T06:12:39.739Z,10.70
2022-10-02T06:15:22.872Z,10.90
2022-10-02T06:18:10.565Z,11.10
2022-10-02T06:21:03.278Z,11.20
2022-10-02T06:23:36.140Z,11.40
2022-10-02T06:26:21.090Z,11.40
2022-10-02T06:28:56.377Z,11.60
2022-10-02T06:31:45.449Z,11.80
2022-10-02T06:34:14.049Z,12.10
2022-10-02T06:36:40.694Z,12.30
2022-10-02T06:39:34.598Z,12.30
2022-10-02T06:42:13.035Z,12.30
2022-10-02T06:44:54.029Z,12.10
2022-10-02T06:47:21.267Z,12.00
2022-10-02T06:50:21.230Z,12.10
2022-10-02T06:53:14.933Z,12.40
2022-10-02T06:56:00.244Z,13.20
2022-10-02T06:58:59.372Z,14.70
2022-10-02T07:01:41.028Z,16.60
2022-10-02T07:04:42.155Z,18.60
2022-10-02T07:07:27.417Z,20.70
2022-10-02T07:10:07.103Z,22.20
2022-10-02T07:12:51.548Z,23.40
2022-10-02T07:16:07.505Z,24.50
2022-10-02T07:18:42.572Z,25.40
2022-10-02T07:21:35.725Z,26.20
2022-10-02T07:24:11.929Z,27.00
2022-10-02T07:26:45.644Z,27.60
2022-10-02T07:29:17.925Z,28.00
2022-10-02T07:31:56.198Z,28.30
2022-10-02T07:34:47.865Z,28.70
2022-10-02T07:37:32.218Z,29.30
2022-10-02T07:40:10.968Z,29.60
2022-10-02T07:43:02.136Z,30.00
2022-10-02T07:45:41.292Z,30.30
2022-10-02T07:48:29.830Z,30.40
2022-10-02T07:51:29.446Z,30.70
2022-10-02T07:54:08.220Z,31.20
2022-10-02T07:56:36.299Z,31.10
2022-10-02T07:59:11.543Z,31.40
2022-10-02T08:01:41.355Z,31.40
2022-10-02T08:04:37.220Z,30.10
2022-10-02T08:07:06.647Z,28.20
2022-10-02T08:09:48.729Z,26.00
2022-10-02T08:12:31.426Z,24.10
2022-10-02T08:14:59.784Z,22.40
2022-10-02T08:17:39.543Z,21.20
2022-10-02T08:20:29.176Z,20.20
2022-10-02T08:23:07.125Z,19.20
2022-10-02T08:25:43.248Z,18.40
2022-10-02T08:28:42.737Z,17.80
2022-10-02T08:31:13.925Z,17.30
2022-10-02T08:33:40.629Z,16.90
2022-10-02T08:36:35.546Z,16.50
2022-10-02T08:39:17.317Z,16.20
2022-10-02T08:41:50.213Z,16.00
2022-10-02T08:44:42.470Z,15.80
2022-10-02T08:47:37.117Z,15.50
2022-10-02T08:50:22.017Z,15.30
2022-10-02T08:53:27.227Z,15.40
2022-10-02T08:56:03.962Z,16.90
2022-10-02T08:59:08.017Z,19.10
2022-10-02T09:01:39.026Z,22.30
2022-10-02T09:04:35.895Z,24.20
2022-10-02T09:07:39.688Z,25.20
2022-10-02T09:10:47.893Z,26.50
2022-10-02T09:13:50.037Z,26.50
2022-10-02T09:16:44.744Z,25.20
2022-10-02T09:19:29.890Z,24.40
2022-10-02T09:22:08.598Z,23.50
2022-10-02T09:24:51.090Z,22.30
2022-10-02T09:27:40.972Z,21.30
2022-10-02T09:30:19.609Z,20.40
2022-10-02T09:33:19.974Z,19.70
2022-10-02T09:35:54.438Z,19.10
2022-10-02T09:38:43.945Z,18.90
2022-10-02T09:41:50.038Z,18.80
2022-10-02T09:44:39.989Z,18.70
2022-10-02T09:47:36.887Z,19.40
2022-10-02T09:50:27.188Z,20.50
2022-10-02T09:53:35.648Z,22.00
2022-10-02T09:56:29.385Z,23.90
2022-10-02T09:59:13.940Z,24.90
2022-10-02T10:01:59.972Z,25.50
2022-10-02T10:05:05.217Z,25.20
2022-10-02T10:08:06.512Z,24.80
2022-10-02T10:11:02.245Z,25.40
2022-10-02T10:13:46.765Z,25.90
2022-10-02T10:16:35.122Z,25.70
2022-10-02T10:19:32.777Z,25.20
2022-10-02T10:22:32.224Z,24.50
2022-10-02T10:25:32.800Z,23.80
2022-10-02T10:28:53.317Z,23.00
2022-10-02T10:31:53.314Z,22.70
2022-10-02T10:34:46.035Z,22.40
2022-10-02T10:38:04.182Z,22.00
2022-10-02T10:41:03.460Z,21.70
2022-10-02T10:43:44.812Z,22.40
2022-10-02T10:46:44.729Z,23.00
2022-10-02T10:49:30.291Z,23.80
2022-10-02T10:52:13.821Z,24.70
2022-10-02T10:55:17.425Z,25.30
2022-10-02T10:58:09.764Z,26.00
2022-10-02T11:01:00.829Z,26.00
2022-10-02T11:03:48.451Z,25.80
2022-10-02T11:06:50.394Z,25.60
2022-10-02T11:09:50.442Z,25.10
2022-10-02T11:12:39.071Z,24.10
2022-10-02T11:15:08.519Z,23.80
2022-10-02T11:17:54.025Z,24.10
2022-10-02T11:20:30.154Z,24.10
2022-10-02T11:23:09.095Z,23.90
2022-10-02T11:25:52.677Z,23.80
2022-10-02T11:28:25.136Z,24.50
2022-10-02T11:31:03.027Z,25.00
2022-10-02T11:33:33.545Z,25.10
2022-10-02T11:36:16.980Z,25.00
2022-10-02T11:38:52.448Z,24.80
2022-10-02T11:41:27.000Z,24.70
2022-10-02T11:44:04.725Z,24.40
2022-10-02T11:47:08.622Z,24.70
2022-10-02T11:50:07.682Z,25.10
2022-10-02T11:53:04.414Z,25.30
2022-10-02T11:55:50.383Z,25.20
2022-10-02T11:58:53.903Z,25.60
2022-10-02T12:01:36.209Z,25.50
2022-10-02T12:04:27.769Z,24.80
2022-10-02T12:07:15.760Z,24.10
2022-10-02T12:10:19.673Z,22.90
2022-10-02T12:13:15.061Z,21.70
2022-10-02T12:16:01.354Z,20.60
2022-10-02T12:18:36.520Z,20.00
2022-10-02T12:21:21.576Z,20.20
2022-10-02T12:24:08.484Z,20.70
2022-10-02T12:27:09.720Z,21.30
2022-10-02T12:29:53.701Z,21.90
2022-10-02T12:32:38.374Z,22.40
2022-10-02T12:35:26.130Z,22.70
2022-10-02T12:38:31.701Z,22.80
2022-10-02T12:41:09.865Z,22.90
2022-10-02T12:43:45.385Z,22.30
2022-10-02T12:46:49.222Z,21.60
2022-10-02T12:49:31.004Z,20.60
2022-10-02T12:52:12.600Z,19.90
2022-10-02T12:54:52.471Z,19.40
2022-10-02T12:57:55.812Z,19.40
2022-10-02T13:01:00.824Z,19.60
2022-10-02T13:03:45.464Z,19.30
2022-10-02T13:06:47.850Z,18.80
2022-10-02T13:09:47.221Z,18.30
2022-10-02T13:12:28.190Z,18.30
2022-10-02T13:15:07.021Z,18.70
2022-10-02T13:17:46.158Z,19.10
2022-10-02T13:20:20.914Z,19.60
2022-10-02T13:23:22.385Z,20.00
2022-10-02T13:26:36.646Z,20.20
2022-10-02T13:29:48.452Z,20.30
2022-10-02T13:32:26.619Z,19.90
2022-10-02T13:35:20.217Z,19.60
2022-10-02T13:37:58.401Z,19.50
2022-10-02T13:40:35.166Z,19.60
2022-10-02T13:43:25.942Z,19.70
2022-10-02T13:46:09.221Z,19.90
2022-10-02T13:48:58.772Z,20.10
2022-10-02T13:52:09.880Z,20.30
2022-10-02T13:54:59.525Z,20.40
2022-10-02T13:57:50.790Z,20.20
2022-10-02T14:00:36.612Z,19.80
2022-10-02T14:03:24.657Z,19.30
2022-10-02T14:05:58.191Z,19.00
2022-10-02T14:08:52.069Z,18.70
2022-10-02T14:11:43.274Z,18.50
2022-10-02T14:14:36.316Z,18.50
2022-10-02T14:17:15.202Z,18.40
2022-10-02T14:20:00.978Z,18.60
2022-10-02T14:22:55.657Z,19.00
2022-10-02T14:25:44.749Z,19.30
2022-10-02T14:28:44.167Z,19.60
2022-10-02T14:31:17.689Z,19.70
2022-10-02T14:34:03.206Z,19.60
2022-10-02T14:36:57.418Z,19.40
2022-10-02T14:39:35.577Z,18.90
2022-10-02T14:42:25.761Z,18.40
2022-10-02T14:44:58.326Z,18.10
2022-10-02T14:47:41.694Z,18.00
2022-10-02T14:50:14.517Z,17.90
2022-10-02T14:53:05.636Z,17.80
2022-10-02T14:55:50.118Z,17.70
2022-10-02T14:58:30.083Z,17.70
2022-10-02T15:01:23.852Z,17.60
2022-10-02T15:04:00.909Z,17.60
2022-10-02T15:06:57.196Z,17.70
2022-10-02T15:09:40.129Z,17.70
2022-10-02T15:12:06.661Z,17.70
2022-10-02T15:14:52.193Z,17.70
2022-10-02T15:17:52.457Z,17.70
2022-10-02T15:20:47.666Z,17.70
2022-10-02T15:23:24.489Z,17.60
2022-10-02T15:26:10.389Z,17.70
2022-10-02T15:28:50.769Z,17.60
2022-10-02T15:31:39.590Z,17.40
2022-10-02T15:34:37.032Z,17.20
2022-10-02T15:37:09.740Z,17.00
2022-10-02T15:39:54.090Z,16.80
2022-10-02T15:42:51.802Z,16.60
2022-10-02T15:45:29.680Z,16.40
2022-10-02T15:48:33.854Z,16.30
2022-10-02T15:51:42.194Z,16.20
2022-10-02T15:55:02.904Z,16.00
2022-10-02T15:58:02.751Z,15.90
2022-10-02T16:00:55.009Z,15.80
2022-10-02T16:03:26.353Z,15.70
2022-10-02T16:06:07.398Z,15.60
2022-10-02T16:08:52.768Z,15.50
2022-10-02T16:11:37.620Z,15.40
2022-10-02T16:14:19.685Z,15.30
2022-10-02T16:17:05.646Z,15.20
2022-10-02T16:19:55.654Z,15.10
2022-10-02T16:22:29.094Z,15.10
2022-10-02T16:25:16.654Z,15.10
2022-10-02T16:27:52.184Z,15.00
2022-10-02T16:30:21.434Z,15.00
2022-10-02T16:32:50.786Z,15.00
2022-10-02T16:35:24.985Z,14.90
2022-10-02T16:38:02.556Z,14.80
2022-10-02T16:40:47.869Z,14.80
2022-10-02T16:43:33.207Z,14.70
2022-10-02T16:46:18.233Z,14.60
2022-10-02T16:49:31.776Z,14.50
2022-10-02T16:52:20.864Z,14.40
2022-10-02T16:55:07.676Z,14.40
2022-10-02T16:57:45.249Z,14.30
2022-10-02T17:00:45.242Z,14.20
2022-10-02T17:03:33.450Z,14.10
2022-10-02T17:06:04.525Z,14.00
2022-10-02T17:09:08.007Z,13.90
2022-10-02T17:11:37.977Z,13.80
2022-10-02T17:14:21.002Z,13.60
2022-10-02T17:16:52.161Z,13.60
2022-10-02T17:19:43.279Z,13.50
2022-10-02T17:22:24.986Z,13.40
2022-10-02T17:25:12.694Z,13.40
2022-10-02T17:27:54.938Z,13.30
2022-10-02T17:30:24.996Z,13.20
2022-10-02T17:33:07.056Z,13.20
2022-10-02T17:35:49.541Z,13.10
2022-10-02T17:38:28.617Z,13.10
2022-10-02T17:41:09.046Z,13.00
2022-10-02T17:43:50.616Z,13.00
2022-10-02T17:46:37.842Z,13.00
2022-10-02T17:49:23.052Z,13.10
2022-10-02T17:52:29.974Z,13.20
2022-10-02T17:55:38.668Z,13.30
2022-10-02T17:58:13.010Z,13.30
2022-10-02T18:00:53.291Z,13.40
2022-10-02T18:03:44.149Z,13.30
2022-10-02T18:06:25.591Z,13.30
2022-10-02T18:09:04.921Z,13.20
2022-10-02T18:11:37.572Z,13.10
2022-10-02T18:14:19.212Z,13.10
2022-10-02T18:16:52.189Z,13.00
2022-10-02T18:19:44.164Z,12.80
2022-10-02T18:22:23.900Z,12.70
2022-10-02T18:25:00.334Z,12.60
2022-10-02T18:27:58.464Z,12.50
2022-10-02T18:30:40.147Z,12.40
2022-10-02T18:33:26.526Z,12.40
2022-10-02T18:36:17.345Z,12.30
2022-10-02T18:39:11.684Z,12.20
2022-10-02T18:42:16.250Z,12.20
2022-10-02T18:45:02.545Z,12.10
2022-10-02T18:47:49.312Z,12.00
2022-10-02T18:50:49.344Z,12.00
2022-10-02T18:53:34.601Z,11.90
2022-10-02T18:56:07.153Z,11.80
2022-10-02T18:58:51.429Z,11.80
2022-10-02T19:01:42.829Z,11.70
2022-10-02T19:04:15.909Z,11.70
2022-10-02T19:06:50.854Z,11.60
2022-10-02T19:09:27.419Z,11.60
2022-10-02T19:12:14.533Z,11.60
2022-10-02T19:14:45.689Z,11.50
2022-10-02T19:17:22.477Z,11.50
2022-10-02T19:19:49.016Z,11.50
2022-10-02T19:22:36.492Z,11.40
2022-10-02T19:25:16.245Z,11.40
2022-10-02T19:27:49.213Z,11.30
2022-10-02T19:30:27.869Z,11.30
2022-10-02T19:32:58.418Z,11.20
2022-10-02T19:35:32.282Z,11.20
2022-10-02T19:38:12.466Z,11.20
2022-10-02T19:40:39.665Z,11.20
2022-10-02T19:43:20.254Z,11.10
2022-10-02T19:45:53.825Z,11.10
2022-10-02T19:48:20.592Z,11.10
2022-10-02T19:50:55.359Z,11.10
2022-10-02T19:53:24.775Z,11.00
2022-10-02T19:56:04.121Z,11.00
2022-10-02T19:58:45.315Z,11.00
2022-10-02T20:01:18.795Z,10.90
2022-10-02T20:03:47.861Z,10.90
2022-10-02T20:06:22.098Z,10.90
2022-10-02T20:09:01.041Z,10.80
2022-10-02T20:11:46.811Z,10.80
2022-10-02T20:14:27.281Z,10.80
2022-10-02T20:17:09.164Z,10.70
2022-10-02T20:19:52.612Z,10.70
2022-10-02T20:22:34.443Z,10.70
2022-10-02T20:25:03.784Z,10.70
2022-10-02T20:27:35.685Z,10.70
2022-10-02T20:30:17.615Z,10.60
2022-10-02T20:32:50.654Z,10.60
2022-10-02T20:35:35.074Z,10.60
2022-10-02T20:38:11.029Z,10.60
2022-10-02T20:40:44.153Z,10.60
2022-10-02T20:43:25.542Z,10.60
2022-10-02T20:46:04.771Z,10.60
2022-10-02T20:49:15.612Z,10.50
2022-10-02T20:51:52.290Z,10.50
2022-10-02T20:54:23.397Z,10.50
2022-10-02T20:57:09.425Z,10.40
2022-10-02T21:00:15.315Z,10.40
2022-10-02T21:02:50.673Z,10.40
2022-10-02T21:05:37.463Z,10.40
2022-10-02T21:08:27.962Z,10.40
2022-10-02T21:11:13.992Z,10.40
2022-10-02T21:13:52.421Z,10.30
2022-10-02T21:16:42.145Z,10.30
2022-10-02T21:19:35.505Z,10.30
2022-10-02T21:22:18.650Z,10.20
2022-10-02T21:25:18.078Z,10.20
2022-10-02T21:28:13.171Z,10.20
2022-10-02T21:30:57.975Z,10.10
2022-10-02T21:33:35.304Z,10.10
2022-10-02T21:36:09.837Z,10.10
2022-10-02T21:39:31.968Z,10.10
2022-10-02T21:42:31.702Z,10.10
2022-10-02T21:45:35.248Z,10.10
2022-10-02T21:48:39.236Z,10.10
2022-10-02T21:51:31.507Z,10.10
2022-10-02T21:54:38.818Z,10.10
2022-10-02T21:57:42.964Z,10.10
2022-10-02T22:00:14.632Z,10.10
2022-10-02T22:02:53.772Z,10.10
2022-10-02T22:05:26.359Z,10.10
2022-10-02T22:07:55.742Z,10.10
2022-10-02T22:10:32.823Z,10.10
2022-10-02T22:13:35.900Z,10.10
2022-10-02T22:16:26.774Z,10.10
2022-10-02T22:19:07.322Z,10.00
2022-10-02T22:22:01.725Z,10.00
2022-10-02T22:24:58.661Z,10.00
2022-10-02T22:27:55.081Z,10.00
2022-10-02T22:30:28.853Z,10.00
2022-10-02T22:33:21.457Z,10.00
2022-10-02T22:35:53.910Z,10.00
2022-10-02T22:38:20.476Z,10.00
2022-10-02T22:40:52.794Z,10.00
2022-10-02T22:43:47.230Z,9.90
2022-10-02T22:46:47.314Z,9.90
2022-10-02T22:49:29.577Z,9.90
2022-10-02T22:52:14.932Z,9.80
2022-10-02T22:55:18.684Z,9.80
2022-10-02T22:58:06.896Z,9.80
2022-10-02T23:00:51.421Z,9.80
2022-10-02T23:03:36.470Z,9.80
2022-10-02T23:06:21.252Z,9.80
2022-10-02T23:08:56.956Z,9.80
2022-10-02T23:11:29.508Z,9.70
2022-10-02T23:14:05.897Z,9.70
2022-10-02T23:16:42.649Z,9.70
2022-10-02T23:19:21.705Z,9.70
2022-10-02T23:22:00.908Z,9.70
2022-10-02T23:24:44.773Z,9.70
2022-10-02T23:27:19.178Z,9.70
2022-10-02T23:30:00.741Z,9.70
2022-10-02T23:32:27.305Z,9.70
2022-10-02T23:35:19.116Z,9.80
2022-10-02T23:37:55.364Z,9.80
2022-10-02T23:40:49.173Z,9.80
2022-10-02T23:43:43.113Z,9.80
2022-10-02T23:46:15.051Z,9.80
2022-10-02T23:48:42.775Z,9.80
2022-10-02T23:51:17.504Z,9.70
2022-10-02T23:54:11.093Z,9.70
2022-10-02T23:57:18.872Z,9.70
2022-10-02T23:59:51.241Z,9.70
